createdAt,value
2022-11-23T00:00:55.498Z,6.73
2022-11-23T00:02:58.356Z,7.37
2022-11-23T00:05:00.914Z,7.27
2022-11-23T00:07:03.398Z,8.10
2022-11-23T00:09:05.948Z,5.40
2022-11-23T00:11:11.562Z,4.60
2022-11-23T00:13:14.232Z,6.97
2022-11-23T00:15:16.538Z,4.93
2022-11-23T00:17:18.571Z,5.03
2022-11-23T00:19:21.089Z,4.53
2022-11-23T00:21:24.297Z,3.33
2022-11-23T00:23:26.635Z,8.47
2022-11-23T00:25:34.718Z,4.63
2022-11-23T00:27:36.911Z,5.97
2022-11-23T00:29:39.054Z,6.80
2022-11-23T00:31:41.424Z,6.67
2022-11-23T00:33:45.744Z,6.57
2022-11-23T00:35:47.703Z,6.07
2022-11-23T00:37:49.887Z,5.10
2022-11-23T00:39:51.936Z,6.07
2022-11-23T00:41:53.960Z,4.47
2022-11-23T00:43:55.963Z,5.20
2022-11-23T00:46:15.497Z,6.00
2022-11-23T00:48:17.664Z,4.57
2022-11-23T00:50:20.203Z,4.73
2022-11-23T00:52:24.803Z,7.43
2022-11-23T00:54:27.084Z,7.33
2022-11-23T00:56:31.462Z,5.93
2022-11-23T00:58:34.896Z,7.97
2022-11-23T01:00:37.517Z,5.80
2022-11-23T01:02:39.695Z,6.50
2022-11-23T01:04:42.185Z,7.27
2022-11-23T01:06:44.223Z,9.60
2022-11-23T01:08:54.476Z,8.53
2022-11-23T01:11:02.320Z,10.30
2022-11-23T01:13:04.608Z,9.97
2022-11-23T01:15:07.324Z,7.53
2022-11-23T01:17:09.535Z,8.33
2022-11-23T01:19:15.322Z,8.27
2022-11-23T01:21:17.701Z,10.40
2022-11-23T01:23:19.974Z,9.10
2022-11-23T01:25:22.185Z,11.43
2022-11-23T01:27:24.176Z,7.67
2022-11-23T01:29:26.209Z,8.33
2022-11-23T01:31:28.338Z,7.10
2022-11-23T01:33:30.505Z,8.37
2022-11-23T01:35:32.689Z,6.30
2022-11-23T01:37:34.782Z,7.23
2022-11-23T01:39:36.836Z,6.40
2022-11-23T01:41:41.733Z,7.20
2022-11-23T01:43:43.884Z,6.37
2022-11-23T01:46:00.299Z,6.20
2022-11-23T01:48:06.139Z,6.30
2022-11-23T01:50:08.800Z,6.67
2022-11-23T01:52:16.209Z,5.70
2022-11-23T01:54:31.749Z,7.70
2022-11-23T01:56:38.637Z,5.63
2022-11-23T01:58:44.223Z,6.27
2022-11-23T02:00:47.214Z,7.13
2022-11-23T02:02:57.857Z,8.67
2022-11-23T02:05:02.047Z,6.70
2022-11-23T02:07:05.348Z,5.77
2022-11-23T02:09:08.217Z,3.57
2022-11-23T02:11:13.753Z,5.30
2022-11-23T02:13:16.640Z,3.77
2022-11-23T02:15:20.558Z,4.97
2022-11-23T02:17:25.541Z,5.93
2022-11-23T02:19:29.724Z,4.87
2022-11-23T02:21:32.447Z,5.03
2022-11-23T02:23:59.006Z,3.47
2022-11-23T02:26:15.052Z,3.73
2022-11-23T02:28:25.096Z,4.80
2022-11-23T02:30:28.901Z,5.63
2022-11-23T02:32:31.809Z,3.53
2022-11-23T02:34:33.743Z,4.23
2022-11-23T02:36:42.031Z,5.20
2022-11-23T02:38:44.148Z,3.67
2022-11-23T02:40:51.224Z,4.40
2022-11-23T02:43:00.661Z,3.07
2022-11-23T02:45:25.392Z,3.03
2022-11-23T02:47:28.038Z,3.70
2022-11-23T02:49:31.063Z,5.40
2022-11-23T02:51:33.727Z,5.40
2022-11-23T02:53:37.774Z,8.20
2022-11-23T02:55:39.865Z,7.33
2022-11-23T02:57:42.332Z,5.73
2022-11-23T02:59:46.063Z,6.70
2022-11-23T03:01:48.807Z,7.57
2022-11-23T03:03:51.020Z,7.50
2022-11-23T03:05:56.444Z,7.03
2022-11-23T03:07:59.710Z,5.73
2022-11-23T03:10:05.321Z,5.23
2022-11-23T03:12:07.786Z,5.47
2022-11-23T03:14:12.494Z,5.30
2022-11-23T03:16:22.961Z,4.27
2022-11-23T03:18:26.271Z,6.30
2022-11-23T03:20:29.257Z,4.67
2022-11-23T03:22:31.893Z,5.03
2022-11-23T03:24:34.695Z,3.83
2022-11-23T03:26:38.819Z,4.90
2022-11-23T03:28:45.649Z,5.90
2022-11-23T03:30:49.803Z,8.57
2022-11-23T03:32:52.800Z,9.67
2022-11-23T03:34:55.721Z,12.77
2022-11-23T03:36:57.929Z,10.80
2022-11-23T03:39:00.221Z,9.53
2022-11-23T03:41:20.575Z,10.70
2022-11-23T03:43:27.850Z,8.70
2022-11-23T03:45:30.019Z,3.90
2022-11-23T03:47:32.797Z,4.20
2022-11-23T03:49:34.943Z,3.20
2022-11-23T03:51:38.507Z,3.80
2022-11-23T03:53:40.724Z,3.03
2022-11-23T03:55:45.587Z,5.10
2022-11-23T03:57:49.705Z,3.63
2022-11-23T03:59:52.005Z,3.17
2022-11-23T04:01:54.226Z,6.53
2022-11-23T04:04:01.670Z,3.07
2022-11-23T04:06:27.711Z,2.43
2022-11-23T04:08:34.481Z,3.43
2022-11-23T04:10:41.182Z,5.27
2022-11-23T04:12:53.758Z,2.83
2022-11-23T04:14:55.914Z,3.17
2022-11-23T04:16:58.458Z,3.53
2022-11-23T04:19:00.990Z,2.87
2022-11-23T04:21:03.543Z,2.83
2022-11-23T04:23:10.405Z,2.23
2022-11-23T04:25:15.795Z,1.90
2022-11-23T04:27:18.134Z,4.07
2022-11-23T04:29:20.711Z,3.27
2022-11-23T04:31:27.727Z,2.77
2022-11-23T04:33:41.047Z,2.43
2022-11-23T04:35:43.702Z,5.63
2022-11-23T04:37:46.220Z,4.57
2022-11-23T04:39:48.633Z,4.37
2022-11-23T04:41:53.955Z,2.50
2022-11-23T04:43:56.837Z,3.60
2022-11-23T04:46:02.107Z,3.63
2022-11-23T04:48:07.034Z,3.10
2022-11-23T04:50:10.640Z,3.20
2022-11-23T04:52:13.046Z,5.33
2022-11-23T04:54:20.896Z,8.23
2022-11-23T04:56:29.050Z,14.20
2022-11-23T04:58:34.530Z,12.67
2022-11-23T05:00:37.389Z,9.80
2022-11-23T05:02:40.804Z,4.40
2022-11-23T05:04:53.953Z,5.40
2022-11-23T05:06:59.903Z,5.03
2022-11-23T05:09:02.200Z,2.93
2022-11-23T05:11:15.873Z,2.77
2022-11-23T05:13:18.162Z,8.63
2022-11-23T05:15:22.224Z,8.17
2022-11-23T05:17:24.303Z,5.20
2022-11-23T05:19:28.910Z,6.37
2022-11-23T05:21:31.504Z,6.80
2022-11-23T05:23:34.626Z,5.53
2022-11-23T05:25:37.005Z,9.07
2022-11-23T05:27:40.250Z,15.32
2022-11-23T05:29:43.378Z,10.47
2022-11-23T05:31:46.393Z,9.37
2022-11-23T05:33:49.818Z,8.50
2022-11-23T05:35:57.944Z,11.37
2022-11-23T05:38:10.107Z,11.10
2022-11-23T05:40:13.508Z,5.03
2022-11-23T05:42:16.137Z,3.97
2022-11-23T05:44:18.186Z,4.30
2022-11-23T05:46:20.423Z,3.40
2022-11-23T05:48:22.644Z,3.73
2022-11-23T05:50:32.488Z,2.67
2022-11-23T05:52:53.651Z,4.77
2022-11-23T05:54:56.096Z,6.63
2022-11-23T05:56:58.981Z,10.07
2022-11-23T05:59:12.443Z,11.20
2022-11-23T06:01:17.723Z,12.17
2022-11-23T06:03:20.268Z,10.10
2022-11-23T06:05:22.436Z,8.10
2022-11-23T06:07:24.904Z,12.60
2022-11-23T06:09:48.068Z,19.07
2022-11-23T06:11:50.577Z,21.90
2022-11-23T06:13:55.165Z,22.93
2022-11-23T06:15:57.753Z,25.43
2022-11-23T06:18:06.970Z,24.27
2022-11-23T06:20:22.420Z,21.80
2022-11-23T06:22:34.469Z,20.00
2022-11-23T06:24:39.895Z,16.33
2022-11-23T06:27:05.572Z,23.43
2022-11-23T06:29:08.627Z,25.83
2022-11-23T06:31:11.528Z,36.80
2022-11-23T06:33:14.118Z,28.13
2022-11-23T06:35:22.503Z,27.63
2022-11-23T06:37:24.763Z,29.77
2022-11-23T06:39:28.904Z,24.23
2022-11-23T06:41:34.414Z,19.97
2022-11-23T06:43:38.163Z,16.03
2022-11-23T06:45:40.538Z,14.63
2022-11-23T06:47:46.533Z,13.07
2022-11-23T06:49:49.171Z,8.37
2022-11-23T06:52:00.251Z,7.43
2022-11-23T06:54:02.792Z,10.87
2022-11-23T06:56:05.585Z,24.67
2022-11-23T06:58:08.202Z,44.30
2022-11-23T07:00:11.475Z,37.27
2022-11-23T07:02:14.892Z,39.30
2022-11-23T07:04:17.555Z,31.87
2022-11-23T07:06:24.361Z,18.17
2022-11-23T07:08:29.520Z,12.50
2022-11-23T07:10:34.458Z,19.00
2022-11-23T07:12:36.679Z,29.03
2022-11-23T07:14:39.529Z,32.33
2022-11-23T07:16:42.584Z,30.10
2022-11-23T07:18:44.661Z,26.93
2022-11-23T07:20:46.712Z,24.40
2022-11-23T07:22:58.649Z,16.57
2022-11-23T07:25:00.789Z,26.90
2022-11-23T07:27:02.883Z,40.30
2022-11-23T07:29:04.836Z,21.57
2022-11-23T07:31:07.689Z,20.77
2022-11-23T07:33:11.871Z,24.37
2022-11-23T07:35:18.562Z,17.90
2022-11-23T07:37:21.017Z,14.30
2022-11-23T07:39:41.905Z,17.87
2022-11-23T07:41:51.431Z,21.60
2022-11-23T07:44:00.161Z,27.37
2022-11-23T07:46:02.436Z,37.27
2022-11-23T07:48:07.048Z,39.37
2022-11-23T07:50:11.405Z,24.87
2022-11-23T07:52:13.535Z,24.30
2022-11-23T07:54:20.693Z,16.00
2022-11-23T07:56:25.836Z,15.63
2022-11-23T07:58:28.166Z,13.70
2022-11-23T08:00:30.255Z,16.67
2022-11-23T08:02:32.421Z,11.93
2022-11-23T08:04:36.998Z,14.53
2022-11-23T08:06:39.143Z,14.37
2022-11-23T08:08:42.570Z,13.23
2022-11-23T08:10:48.559Z,14.43
2022-11-23T08:12:58.360Z,11.93
2022-11-23T08:15:00.580Z,16.17
2022-11-23T08:17:02.381Z,13.47
2022-11-23T08:19:04.858Z,15.80
2022-11-23T08:21:07.010Z,15.30
2022-11-23T08:23:09.212Z,11.20
2022-11-23T08:25:11.162Z,9.73
2022-11-23T08:27:15.336Z,6.67
2022-11-23T08:29:17.188Z,7.77
2022-11-23T08:31:19.407Z,14.10
2022-11-23T08:33:21.485Z,14.02
2022-11-23T08:35:24.477Z,8.67
2022-11-23T08:37:26.410Z,8.30
2022-11-23T08:39:28.537Z,9.40
2022-11-23T08:41:30.429Z,9.40
2022-11-23T08:43:32.995Z,17.57
2022-11-23T08:45:35.585Z,27.23
2022-11-23T08:47:37.545Z,15.63
2022-11-23T08:49:39.666Z,13.30
2022-11-23T08:51:45.626Z,15.47
2022-11-23T08:53:53.439Z,14.20
2022-11-23T08:55:55.381Z,16.90
2022-11-23T08:57:58.678Z,21.13
2022-11-23T09:00:00.874Z,17.75
2022-11-23T09:02:02.943Z,23.47
2022-11-23T09:04:05.758Z,20.53
2022-11-23T09:06:08.180Z,23.30
2022-11-23T09:08:10.449Z,26.03
2022-11-23T09:10:17.751Z,18.60
2022-11-23T09:12:20.357Z,21.30
2022-11-23T09:14:22.485Z,30.88
2022-11-23T09:16:25.950Z,30.57
2022-11-23T09:18:31.244Z,27.73
2022-11-23T09:20:33.215Z,28.05
2022-11-23T09:22:35.342Z,21.23
2022-11-23T09:24:37.648Z,27.40
2022-11-23T09:26:40.790Z,23.13
2022-11-23T09:28:44.899Z,27.00
2022-11-23T09:30:50.180Z,22.65
2022-11-23T09:32:52.149Z,17.83
2022-11-23T09:34:54.250Z,16.33
2022-11-23T09:36:59.127Z,27.05
2022-11-23T09:39:01.971Z,17.02
2022-11-23T09:45:16.726Z,19.77
2022-11-23T09:47:36.879Z,28.88
2022-11-23T09:50:09.458Z,20.05
2022-11-23T09:52:20.883Z,13.57
2022-11-23T09:54:28.257Z,12.00
2022-11-23T09:56:41.511Z,9.90
2022-11-23T09:58:43.360Z,12.98
2022-11-23T10:00:55.975Z,12.90
2022-11-23T10:02:57.775Z,14.10
2022-11-23T10:05:01.489Z,15.13
2022-11-23T10:07:28.355Z,15.93
2022-11-23T10:09:42.650Z,22.67
2022-11-23T10:12:01.990Z,19.58
2022-11-23T10:14:19.138Z,18.73
2022-11-23T10:16:49.579Z,17.77
2022-11-23T10:19:22.626Z,15.00
2022-11-23T10:21:39.898Z,15.15
2022-11-23T10:24:09.226Z,14.45
2022-11-23T10:26:16.956Z,16.67
2022-11-23T10:28:22.400Z,13.80
2022-11-23T10:30:24.556Z,17.65
2022-11-23T10:36:19.618Z,17.67
2022-11-23T10:38:27.520Z,18.08
2022-11-23T10:40:31.589Z,15.40
2022-11-23T10:42:43.722Z,11.60
2022-11-23T10:44:47.596Z,13.60
2022-11-23T10:46:49.468Z,8.98
2022-11-23T10:48:53.034Z,7.53
2022-11-23T10:51:16.714Z,9.32
2022-11-23T10:53:23.281Z,9.48
2022-11-23T10:55:47.194Z,9.45
2022-11-23T10:57:49.376Z,10.77
2022-11-23T11:00:20.009Z,10.00
2022-11-23T11:02:22.222Z,10.57
2022-11-23T11:04:25.877Z,11.65
2022-11-23T11:06:30.975Z,12.43
2022-11-23T11:08:48.738Z,12.18
2022-11-23T11:10:59.794Z,16.50
2022-11-23T11:13:02.248Z,16.25
2022-11-23T11:15:11.831Z,16.73
2022-11-23T11:17:37.757Z,14.05
2022-11-23T11:19:39.723Z,13.88
2022-11-23T11:21:45.668Z,13.13
2022-11-23T11:24:01.891Z,11.07
2022-11-23T11:26:10.684Z,11.02
2022-11-23T11:28:31.524Z,9.90
2022-11-23T11:30:46.079Z,10.10
2022-11-23T11:32:56.731Z,9.90
2022-11-23T11:35:10.846Z,16.10
2022-11-23T11:37:31.764Z,11.45
2022-11-23T11:39:42.785Z,11.63
2022-11-23T11:41:47.347Z,21.33
2022-11-23T11:43:56.405Z,17.83
2022-11-23T11:46:28.612Z,17.30
2022-11-23T11:48:40.278Z,19.35
2022-11-23T11:50:53.414Z,16.27
2022-11-23T11:53:09.196Z,17.10
2022-11-23T11:55:52.660Z,20.13
2022-11-23T11:58:27.206Z,21.38
2022-11-23T12:00:33.638Z,20.55
2022-11-23T12:03:20.507Z,31.05
2022-11-23T12:05:30.231Z,30.17
2022-11-23T12:07:36.551Z,40.30
2022-11-23T12:09:44.872Z,50.67
2022-11-23T12:11:46.826Z,92.30
2022-11-23T12:13:49.192Z,144.90
2022-11-23T12:16:16.424Z,104.45
2022-11-23T12:18:42.646Z,63.10
2022-11-23T12:21:10.415Z,51.20
2022-11-23T12:23:12.625Z,37.97
2022-11-23T12:25:28.715Z,31.92
2022-11-23T12:28:03.375Z,24.85
2022-11-23T12:30:28.117Z,26.38
2022-11-23T12:32:50.143Z,25.73
2022-11-23T12:35:20.616Z,24.38
2022-11-23T12:37:40.284Z,21.20
2022-11-23T12:40:14.859Z,44.40
2022-11-23T12:42:32.303Z,79.03
2022-11-23T12:45:04.228Z,100.43
2022-11-23T12:47:35.632Z,140.75
2022-11-23T12:49:47.992Z,100.85
2022-11-23T12:52:17.452Z,71.53
2022-11-23T12:54:37.816Z,55.25
2022-11-23T12:56:47.933Z,42.08
2022-11-23T12:58:52.974Z,36.72
2022-11-23T13:01:00.836Z,47.72
2022-11-23T13:03:33.864Z,40.88
2022-11-23T13:06:03.646Z,30.05
2022-11-23T13:08:37.905Z,30.27
2022-11-23T13:10:45.924Z,29.35
2022-11-23T13:13:25.409Z,27.73
2022-11-23T13:16:23.075Z,29.02
2022-11-23T13:19:05.008Z,28.33
2022-11-23T13:21:27.764Z,29.33
2022-11-23T13:23:36.805Z,31.92
2022-11-23T13:25:39.331Z,29.67
2022-11-23T13:27:44.581Z,26.33
2022-11-23T13:29:53.398Z,23.75
2022-11-23T13:32:35.079Z,22.80
2022-11-23T13:34:47.502Z,22.55
2022-11-23T13:37:16.066Z,26.73
2022-11-23T13:39:51.169Z,76.43
2022-11-23T13:42:02.938Z,40.38
2022-11-23T13:44:23.127Z,26.20
2022-11-23T13:46:29.698Z,22.08
2022-11-23T13:48:55.616Z,18.63
2022-11-23T13:51:02.234Z,13.77
2022-11-23T13:53:19.269Z,20.00
2022-11-23T13:55:42.970Z,22.25
2022-11-23T13:57:48.693Z,42.17
2022-11-23T13:59:54.164Z,34.38
2022-11-23T14:02:09.718Z,29.48
2022-11-23T14:04:24.673Z,18.40
2022-11-23T14:06:45.467Z,17.48
2022-11-23T14:08:52.001Z,21.27
2022-11-23T14:10:55.193Z,26.02
2022-11-23T14:13:13.320Z,20.83
2022-11-23T14:15:21.337Z,10.50
2022-11-23T14:17:42.101Z,8.57
2022-11-23T14:20:24.393Z,8.15
2022-11-23T14:23:22.619Z,6.68
2022-11-23T14:25:50.248Z,15.05
2022-11-23T14:27:58.124Z,14.23
2022-11-23T14:30:05.953Z,13.23
2022-11-23T14:32:33.375Z,13.02
2022-11-23T14:34:51.637Z,8.73
2022-11-23T14:37:19.337Z,21.40
2022-11-23T14:39:45.824Z,16.52
2022-11-23T14:41:55.567Z,13.65
2022-11-23T14:44:01.014Z,13.35
2022-11-23T14:46:07.548Z,15.40
2022-11-23T14:48:30.561Z,19.90
2022-11-23T14:50:36.947Z,78.60
2022-11-23T14:52:39.341Z,52.78
2022-11-23T14:54:48.689Z,58.03
2022-11-23T14:56:53.691Z,79.93
2022-11-23T14:59:02.937Z,41.92
2022-11-23T15:01:05.248Z,38.58
2022-11-23T15:03:48.794Z,35.45
2022-11-23T15:05:44.225Z,32.90
2022-11-23T15:07:57.152Z,35.15
2022-11-23T15:10:26.333Z,27.50
2022-11-23T15:12:46.005Z,18.85
2022-11-23T15:14:51.256Z,19.55
2022-11-23T15:16:53.203Z,22.25
2022-11-23T15:18:55.255Z,22.60
2022-11-23T15:21:03.752Z,22.55
2022-11-23T15:23:05.938Z,22.95
2022-11-23T15:25:13.675Z,22.73
2022-11-23T15:27:21.542Z,24.77
2022-11-23T15:29:35.747Z,23.55
2022-11-23T15:31:50.436Z,38.60
2022-11-23T15:34:12.158Z,66.03
2022-11-23T15:36:16.854Z,47.95
2022-11-23T15:38:23.651Z,44.50
2022-11-23T15:40:30.302Z,50.42
2022-11-23T15:42:33.028Z,62.95
2022-11-23T15:44:38.761Z,65.15
2022-11-23T15:46:41.895Z,62.10
2022-11-23T15:48:50.365Z,61.83
2022-11-23T15:50:58.667Z,85.97
2022-11-23T15:53:01.563Z,87.85
2022-11-23T15:55:09.815Z,86.88
2022-11-23T15:57:26.865Z,71.68
2022-11-23T15:59:35.512Z,52.67
2022-11-23T16:01:38.920Z,59.17
2022-11-23T16:03:42.760Z,47.42
2022-11-23T16:05:45.015Z,46.08
2022-11-23T16:07:53.643Z,47.80
2022-11-23T16:10:18.872Z,47.47
2022-11-23T16:12:27.276Z,41.42
2022-11-23T16:14:32.236Z,38.97
2022-11-23T16:16:34.602Z,38.35
2022-11-23T16:18:36.731Z,34.38
2022-11-23T16:20:45.083Z,33.25
2022-11-23T16:22:50.937Z,35.13
2022-11-23T16:25:08.585Z,32.40
2022-11-23T16:27:15.536Z,29.83
2022-11-23T16:29:26.515Z,26.30
2022-11-23T16:31:38.575Z,23.65
2022-11-23T16:33:40.704Z,37.42
2022-11-23T16:35:43.122Z,24.92
2022-11-23T16:37:45.883Z,25.38
2022-11-23T16:39:48.395Z,26.40
2022-11-23T16:41:52.356Z,31.55
2022-11-23T16:43:57.321Z,61.80
2022-11-23T16:46:01.942Z,63.90
2022-11-23T16:48:04.244Z,60.10
2022-11-23T16:50:06.814Z,54.60
2022-11-23T16:52:11.812Z,29.80
2022-11-23T16:54:16.225Z,31.08
2022-11-23T16:56:24.358Z,68.88
2022-11-23T16:58:30.595Z,61.92
2022-11-23T17:00:34.109Z,64.05
2022-11-23T17:02:36.428Z,81.32
2022-11-23T17:04:39.058Z,79.93
2022-11-23T17:06:42.959Z,73.72
2022-11-23T17:08:45.509Z,70.80
2022-11-23T17:10:48.593Z,70.90
2022-11-23T17:12:52.649Z,61.33
2022-11-23T17:14:54.797Z,58.90
2022-11-23T17:16:57.008Z,58.37
2022-11-23T17:18:59.410Z,51.40
2022-11-23T17:21:01.504Z,45.37
2022-11-23T17:23:03.456Z,42.63
2022-11-23T17:25:11.563Z,45.40
2022-11-23T17:27:21.105Z,41.65
2022-11-23T17:29:24.250Z,48.10
2022-11-23T17:31:26.540Z,52.33
2022-11-23T17:33:28.937Z,48.33
2022-11-23T17:35:36.763Z,47.20
2022-11-23T17:37:40.732Z,43.92
2022-11-23T17:39:43.303Z,41.38
2022-11-23T17:41:48.144Z,47.80
2022-11-23T17:43:50.995Z,45.35
2022-11-23T17:45:53.449Z,43.93
2022-11-23T17:47:59.451Z,44.95
2022-11-23T17:50:07.417Z,51.92
2022-11-23T17:52:11.740Z,53.70
2022-11-23T17:54:13.797Z,56.20
2022-11-23T17:56:19.549Z,56.53
2022-11-23T17:58:21.494Z,59.47
2022-11-23T18:00:29.777Z,59.13
2022-11-23T18:02:31.998Z,64.30
2022-11-23T18:04:34.137Z,74.50
2022-11-23T18:06:36.782Z,69.57
2022-11-23T18:08:39.207Z,69.68
2022-11-23T18:10:41.433Z,68.60
2022-11-23T18:12:44.841Z,85.43
2022-11-23T18:14:47.443Z,84.90
2022-11-23T18:16:50.552Z,75.55
2022-11-23T18:18:53.440Z,78.68
2022-11-23T18:20:55.622Z,76.93
2022-11-23T18:22:57.759Z,68.10
2022-11-23T18:24:59.904Z,74.30
2022-11-23T18:27:01.960Z,77.57
2022-11-23T18:29:04.545Z,79.15
2022-11-23T18:31:07.184Z,75.10
2022-11-23T18:33:09.649Z,74.18
2022-11-23T18:35:11.782Z,67.85
2022-11-23T18:37:13.863Z,66.07
2022-11-23T18:39:15.949Z,59.72
2022-11-23T18:41:17.946Z,58.25
2022-11-23T18:43:20.108Z,54.30
2022-11-23T18:45:22.061Z,51.65
2022-11-23T18:47:24.379Z,47.55
2022-11-23T18:49:26.408Z,50.30
2022-11-23T18:51:28.624Z,52.60
2022-11-23T18:53:32.380Z,57.17
2022-11-23T18:55:35.127Z,59.65
2022-11-23T18:57:37.885Z,48.92
2022-11-23T18:59:57.560Z,54.25
2022-11-23T19:02:00.586Z,43.20
2022-11-23T19:04:05.286Z,37.35
2022-11-23T19:06:08.428Z,36.03
2022-11-23T19:08:10.476Z,38.97
2022-11-23T19:10:12.578Z,37.58
2022-11-23T19:12:14.970Z,35.85
2022-11-23T19:14:17.148Z,35.15
2022-11-23T19:16:27.048Z,27.67
2022-11-23T19:18:29.496Z,28.95
2022-11-23T19:20:31.726Z,23.20
2022-11-23T19:22:35.161Z,26.88
2022-11-23T19:24:37.430Z,26.33
2022-11-23T19:26:40.023Z,26.02
2022-11-23T19:28:44.993Z,31.92
2022-11-23T19:30:49.479Z,36.97
2022-11-23T19:32:51.656Z,39.70
2022-11-23T19:34:55.518Z,47.35
2022-11-23T19:36:57.754Z,46.30
2022-11-23T19:39:03.492Z,41.25
2022-11-23T19:41:06.124Z,42.70
2022-11-23T19:43:08.163Z,47.70
2022-11-23T19:45:10.700Z,43.78
2022-11-23T19:47:16.546Z,40.63
2022-11-23T19:49:22.182Z,42.03
2022-11-23T19:51:24.861Z,45.08
2022-11-23T19:53:31.013Z,44.28
2022-11-23T19:55:33.060Z,46.95
2022-11-23T19:57:35.126Z,38.40
2022-11-23T19:59:37.129Z,38.65
2022-11-23T20:01:39.251Z,34.78
2022-11-23T20:03:43.802Z,28.90
2022-11-23T20:05:59.912Z,17.23
2022-11-23T20:08:02.136Z,14.80
2022-11-23T20:10:07.263Z,12.93
2022-11-23T20:12:09.712Z,11.60
2022-11-23T20:14:12.622Z,12.68
2022-11-23T20:16:17.381Z,30.80
2022-11-23T20:18:19.665Z,28.48
2022-11-23T20:20:21.700Z,21.63
2022-11-23T20:22:23.801Z,52.22
2022-11-23T20:24:25.704Z,47.22
2022-11-23T20:26:30.736Z,35.35
2022-11-23T20:28:32.841Z,25.30
2022-11-23T20:30:35.110Z,16.90
2022-11-23T20:32:37.091Z,11.32
2022-11-23T20:34:39.324Z,9.82
2022-11-23T20:36:41.178Z,5.80
2022-11-23T20:38:43.421Z,5.78
2022-11-23T20:40:45.265Z,5.47
2022-11-23T20:42:47.060Z,4.60
2022-11-23T20:44:49.008Z,3.10
2022-11-23T20:47:01.972Z,5.10
2022-11-23T20:49:04.588Z,3.63
2022-11-23T20:51:10.866Z,6.43
2022-11-23T20:53:12.865Z,3.80
2022-11-23T20:55:20.516Z,4.25
2022-11-23T20:57:22.786Z,4.47
2022-11-23T20:59:25.119Z,5.32
2022-11-23T21:01:28.957Z,9.63
2022-11-23T21:03:35.472Z,17.80
2022-11-23T21:05:37.871Z,17.73
2022-11-23T21:07:40.098Z,12.18
2022-11-23T21:09:42.280Z,8.48
2022-11-23T21:12:03.084Z,7.45
2022-11-23T21:14:13.957Z,6.15
2022-11-23T21:16:19.428Z,3.90
2022-11-23T21:18:21.346Z,5.93
2022-11-23T21:20:23.428Z,3.90
2022-11-23T21:22:25.445Z,6.28
2022-11-23T21:24:28.754Z,16.00
2022-11-23T21:26:32.865Z,10.30
2022-11-23T21:28:35.138Z,8.23
2022-11-23T21:30:37.344Z,5.35
2022-11-23T21:32:39.574Z,4.80
2022-11-23T21:34:41.612Z,3.92
2022-11-23T21:36:46.286Z,3.00
2022-11-23T21:38:48.984Z,2.92
2022-11-23T21:40:57.165Z,3.15
2022-11-23T21:42:59.299Z,3.67
2022-11-23T21:45:01.574Z,4.28
2022-11-23T21:47:04.121Z,3.65
2022-11-23T21:49:08.263Z,6.03
2022-11-23T21:51:14.191Z,4.95
2022-11-23T21:53:19.559Z,5.28
2022-11-23T21:55:21.549Z,5.28
2022-11-23T21:57:23.626Z,4.43
2022-11-23T21:59:25.782Z,4.97
2022-11-23T22:01:32.658Z,5.70
2022-11-23T22:03:43.179Z,7.90
2022-11-23T22:05:55.485Z,9.55
2022-11-23T22:08:27.571Z,10.23
2022-11-23T22:10:19.519Z,11.23
2022-11-23T22:12:21.796Z,13.93
2022-11-23T22:14:23.896Z,13.45
2022-11-23T22:16:30.541Z,12.52
2022-11-23T22:18:32.662Z,13.65
2022-11-23T22:20:34.808Z,13.00
2022-11-23T22:22:37.074Z,16.85
2022-11-23T22:24:39.550Z,14.70
2022-11-23T22:26:42.334Z,15.05
2022-11-23T22:28:47.231Z,12.90
2022-11-23T22:30:56.994Z,16.85
2022-11-23T22:32:58.998Z,16.38
2022-11-23T22:35:03.830Z,12.57
2022-11-23T22:37:10.737Z,14.88
2022-11-23T22:39:13.252Z,18.58
2022-11-23T22:41:17.008Z,20.45
2022-11-23T22:43:19.077Z,19.88
2022-11-23T22:45:21.824Z,88.30
2022-11-23T22:47:24.061Z,135.77
2022-11-23T22:49:26.082Z,131.05
2022-11-23T22:51:30.028Z,108.40
2022-11-23T22:53:32.741Z,90.45
2022-11-23T22:55:34.910Z,69.07
2022-11-23T22:57:39.684Z,88.38
2022-11-23T22:59:42.120Z,89.18
2022-11-23T23:01:44.410Z,83.68
2022-11-23T23:03:47.376Z,80.00
2022-11-23T23:05:57.337Z,75.47
2022-11-23T23:07:59.631Z,62.17
2022-11-23T23:10:02.000Z,50.10
2022-11-23T23:12:04.278Z,36.10
2022-11-23T23:14:06.580Z,33.88
2022-11-23T23:16:11.970Z,39.80
2022-11-23T23:18:16.404Z,59.92
2022-11-23T23:20:18.454Z,54.78
2022-11-23T23:22:20.516Z,38.17
2022-11-23T23:24:22.467Z,29.25
2022-11-23T23:26:26.303Z,32.90
2022-11-23T23:28:30.415Z,41.33
2022-11-23T23:30:32.635Z,37.83
2022-11-23T23:32:34.692Z,65.93
2022-11-23T23:34:36.704Z,100.93
2022-11-23T23:36:39.358Z,152.82
2022-11-23T23:38:42.144Z,157.10
2022-11-23T23:40:44.287Z,115.53
2022-11-23T23:42:46.818Z,86.28
2022-11-23T23:44:48.906Z,39.42
2022-11-23T23:46:51.361Z,32.78
2022-11-23T23:48:53.438Z,36.33
2022-11-23T23:50:55.901Z,50.58
2022-11-23T23:52:58.069Z,58.67
2022-11-23T23:55:00.203Z,63.55
2022-11-23T23:57:02.595Z,44.28
2022-11-23T23:59:04.720Z,36.53
